Time;durP1;ratioP1;P1;durP2;ratioP2;P2;SDS_P1;SDS_P2;PMS_P1;PMS_P2;Temp;Humidity;BMP_temperature;BMP_pressure;BME280_temperature;BME280_humidity;BME280_pressure;Samples;Min_cycle;Max_cycle;Signal;HPM_P1;HPM_P2
2022/09/13 00:01:49;;;;;;;4.87;4.77;;;14.20;1.00;;;;;;6280644;28;20516;-56
2022/09/13 00:04:54;;;;;;;4.90;4.80;;;14.20;1.00;;;;;;6266326;28;20238;-55
2022/09/13 00:07:58;;;;;;;5.80;5.50;;;14.20;1.00;;;;;;6310483;28;20240;-54
2022/09/13 00:11:00;;;;;;;6.60;6.30;;;14.20;1.00;;;;;;6311403;28;20244;-54
2022/09/13 00:14:04;;;;;;;6.93;6.53;;;14.20;1.00;;;;;;6287346;28;20233;-55
2022/09/13 00:17:06;;;;;;;6.80;6.47;;;14.20;1.00;;;;;;6261115;28;20245;-55
2022/09/13 00:20:11;;;;;;;5.93;5.73;;;14.20;1.00;;;;;;6271319;28;20237;-54
2022/09/13 00:23:14;;;;;;;5.17;5.03;;;14.20;1.00;;;;;;6279337;28;20625;-54
2022/09/13 00:26:19;;;;;;;4.97;4.87;;;14.20;1.00;;;;;;6285530;28;20761;-55
2022/09/13 00:29:22;;;;;;;5.30;5.00;;;14.10;1.00;;;;;;6282380;28;20245;-54
2022/09/13 00:32:25;;;;;;;5.03;4.83;;;14.10;1.00;;;;;;6262762;28;20242;-55
2022/09/13 00:35:29;;;;;;;5.23;5.10;;;14.10;1.00;;;;;;6289684;28;20240;-55
2022/09/13 00:38:34;;;;;;;5.23;5.03;;;14.10;1.00;;;;;;6287265;28;20757;-54
2022/09/13 00:41:38;;;;;;;4.87;4.77;;;14.10;1.00;;;;;;6261855;28;20698;-55
2022/09/13 00:44:56;;;;;;;5.57;5.27;;;14.00;1.00;;;;;;6259648;28;20252;-58
2022/09/13 00:48:02;;;;;;;5.00;4.80;;;14.00;1.00;;;;;;6260615;28;20244;-56
2022/09/13 00:51:08;;;;;;;5.30;5.07;;;14.00;1.00;;;;;;6284928;28;20256;-55
2022/09/13 00:54:12;;;;;;;5.40;5.20;;;14.00;1.00;;;;;;6285018;28;20237;-54
2022/09/13 00:57:17;;;;;;;5.10;4.90;;;14.00;1.00;;;;;;6275666;28;20233;-55
2022/09/13 01:00:21;;;;;;;5.03;4.90;;;14.00;1.00;;;;;;6250105;28;20252;-55
2022/09/13 01:03:27;;;;;;;5.03;4.90;;;13.90;1.00;;;;;;6240640;28;20225;-55
2022/09/13 01:06:36;;;;;;;4.87;4.77;;;13.90;1.00;;;;;;6280949;28;20725;-55
2022/09/13 01:09:43;;;;;;;4.27;4.17;;;13.90;1.00;;;;;;6282045;28;20256;-54
2022/09/13 01:12:52;;;;;;;3.67;3.67;;;13.90;1.00;;;;;;6264876;28;20914;-54
2022/09/13 01:15:55;;;;;;;4.60;4.50;;;13.90;1.00;;;;;;6259793;28;20238;-55
2022/09/13 01:18:57;;;;;;;4.83;4.73;;;13.90;1.00;;;;;;6267607;28;20846;-55
2022/09/13 01:22:52;;;;;;;5.60;5.40;;;13.90;1.00;;;;;;6265892;28;20238;-57
2022/09/13 01:26:20;;;;;;;5.53;5.27;;;13.90;1.00;;;;;;6258995;28;20610;-55
2022/09/13 01:29:55;;;;;;;5.43;5.33;;;13.90;1.00;;;;;;6265314;28;20225;-55
2022/09/13 01:33:23;;;;;;;5.20;5.00;;;13.80;1.00;;;;;;6284775;28;20233;-56
2022/09/13 01:36:49;;;;;;;5.03;4.83;;;13.80;1.00;;;;;;6300119;28;20697;-54
2022/09/13 01:40:03;;;;;;;4.53;4.43;;;13.80;1.00;;;;;;6257037;28;20245;-54
2022/09/13 01:43:27;;;;;;;5.90;5.57;;;13.70;1.00;;;;;;6283888;28;20642;-55
2022/09/13 01:46:37;;;;;;;4.90;4.80;;;13.70;1.00;;;;;;6279818;28;20230;-55
2022/09/13 01:49:47;;;;;;;5.07;4.77;;;13.70;1.00;;;;;;6272053;28;20261;-55
2022/09/13 01:52:55;;;;;;;4.90;4.80;;;13.60;1.00;;;;;;6276058;28;20659;-55
2022/09/13 01:56:03;;;;;;;6.37;6.17;;;13.60;1.00;;;;;;6281406;28;20593;-55
2022/09/13 01:59:15;;;;;;;5.53;5.33;;;13.60;1.00;;;;;;6258522;28;20222;-54
2022/09/13 02:02:23;;;;;;;5.43;5.13;;;13.60;1.00;;;;;;6246879;28;20252;-55
2022/09/13 02:05:33;;;;;;;4.33;4.23;;;13.50;1.00;;;;;;6287541;28;20229;-55
2022/09/13 02:08:42;;;;;;;4.60;4.50;;;13.50;1.00;;;;;;6287311;28;20233;-55
2022/09/13 02:11:48;;;;;;;5.17;4.97;;;13.50;1.00;;;;;;6279563;28;20241;-55
2022/09/13 02:14:58;;;;;;;4.30;4.10;;;13.50;1.00;;;;;;6283322;28;20724;-54
2022/09/13 02:18:08;;;;;;;4.93;4.67;;;13.50;1.00;;;;;;6270696;28;20251;-55
2022/09/13 02:21:17;;;;;;;4.70;4.60;;;13.40;1.00;;;;;;6284793;28;20237;-54
2022/09/13 02:24:26;;;;;;;4.83;4.73;;;13.40;1.00;;;;;;6282614;28;20233;-54
2022/09/13 02:27:33;;;;;;;5.20;5.00;;;13.40;1.00;;;;;;6258608;28;20230;-55
2022/09/13 02:30:40;;;;;;;5.00;4.87;;;13.40;1.00;;;;;;6257778;28;20268;-54
2022/09/13 02:33:48;;;;;;;5.00;4.90;;;13.40;1.00;;;;;;6262127;28;20234;-55
2022/09/13 02:36:55;;;;;;;6.20;5.90;;;13.40;1.00;;;;;;6292395;28;20248;-55
2022/09/13 02:40:02;;;;;;;6.90;6.60;;;13.40;1.00;;;;;;6308013;28;20408;-54
2022/09/13 02:43:08;;;;;;;5.10;4.90;;;13.40;1.00;;;;;;6280082;28;20229;-57
2022/09/13 02:46:21;;;;;;;5.57;5.30;;;13.30;1.00;;;;;;6257423;28;20688;-54
2022/09/13 02:49:30;;;;;;;5.40;5.20;;;13.40;1.00;;;;;;6265452;28;20232;-55
2022/09/13 02:52:44;;;;;;;5.50;5.27;;;13.30;1.00;;;;;;6292139;28;20709;-54
2022/09/13 02:55:55;;;;;;;5.23;5.03;;;13.30;1.00;;;;;;6282966;28;20233;-54
2022/09/13 02:59:05;;;;;;;6.00;5.80;;;13.40;1.00;;;;;;6262424;28;20234;-55
2022/09/13 03:02:12;;;;;;;5.67;5.27;;;13.30;1.00;;;;;;6257886;28;20241;-55
2022/09/13 03:05:16;;;;;;;5.60;5.40;;;13.40;1.00;;;;;;6281929;28;20237;-54
2022/09/13 03:08:22;;;;;;;6.10;5.80;;;13.40;1.00;;;;;;6270185;28;20610;-55
2022/09/13 03:11:32;;;;;;;4.93;4.83;;;13.40;1.00;;;;;;6281584;28;20237;-55
2022/09/13 03:14:43;;;;;;;5.50;5.30;;;13.40;1.00;;;;;;6282934;28;20678;-55
2022/09/13 03:17:54;;;;;;;5.73;5.53;;;13.30;1.00;;;;;;6282648;28;20242;-55
2022/09/13 03:21:06;;;;;;;6.03;5.70;;;13.40;1.00;;;;;;6281637;28;20264;-55
2022/09/13 03:24:22;;;;;;;6.33;6.00;;;13.30;1.00;;;;;;6263695;28;20237;-55
2022/09/13 03:27:34;;;;;;;5.80;5.37;;;13.30;1.00;;;;;;6280812;28;20240;-55
2022/09/13 03:30:42;;;;;;;6.33;6.03;;;13.30;1.00;;;;;;6284584;28;20708;-54
2022/09/13 03:33:51;;;;;;;5.50;5.30;;;13.30;1.00;;;;;;6264634;28;20579;-54
2022/09/13 03:36:57;;;;;;;5.13;4.93;;;13.20;1.00;;;;;;6285558;28;20241;-55
2022/09/13 03:40:07;;;;;;;5.53;5.33;;;13.20;1.00;;;;;;6285556;28;20243;-54
2022/09/13 03:43:14;;;;;;;5.23;5.03;;;13.20;1.00;;;;;;6280484;28;20282;-54
2022/09/13 03:46:22;;;;;;;6.57;6.07;;;13.20;1.00;;;;;;6286280;28;20237;-54
2022/09/13 03:49:27;;;;;;;5.43;5.13;;;13.20;1.00;;;;;;6279469;28;20229;-56
2022/09/13 03:52:30;;;;;;;4.60;4.50;;;13.30;1.00;;;;;;6290741;28;20242;-54
2022/09/13 03:55:38;;;;;;;5.43;5.23;;;13.20;1.00;;;;;;6284096;28;20236;-55
2022/09/13 03:58:41;;;;;;;6.00;5.80;;;13.30;1.00;;;;;;6284987;28;20233;-54
2022/09/13 04:01:44;;;;;;;5.70;5.50;;;13.30;1.00;;;;;;6286559;28;20243;-55
2022/09/13 04:04:48;;;;;;;6.07;5.77;;;13.30;1.00;;;;;;6287124;28;20240;-55
2022/09/13 04:07:51;;;;;;;5.40;5.20;;;13.30;1.00;;;;;;6266566;28;20237;-55
2022/09/13 04:10:55;;;;;;;6.70;6.40;;;13.30;1.00;;;;;;6285595;28;20732;-54
2022/09/13 04:13:58;;;;;;;5.33;5.13;;;13.30;1.00;;;;;;6281012;28;20585;-55
2022/09/13 04:17:01;;;;;;;5.73;5.53;;;13.40;1.00;;;;;;6283196;28;20240;-56
2022/09/13 04:20:05;;;;;;;5.63;5.43;;;13.40;1.00;;;;;;6281190;28;20245;-55
2022/09/13 04:23:08;;;;;;;5.77;5.53;;;13.40;1.00;;;;;;6283803;28;20243;-53
2022/09/13 04:26:12;;;;;;;5.60;5.40;;;13.50;1.00;;;;;;6282255;28;20494;-54
2022/09/13 04:29:15;;;;;;;6.90;6.60;;;13.50;1.00;;;;;;6276126;28;20241;-54
2022/09/13 04:32:18;;;;;;;5.60;5.40;;;13.50;1.00;;;;;;6287431;28;20244;-55
2022/09/13 04:35:21;;;;;;;5.67;5.47;;;13.50;1.00;;;;;;6272986;28;20492;-55
2022/09/13 04:38:24;;;;;;;7.27;6.90;;;13.50;1.00;;;;;;6281940;28;20233;-55
2022/09/13 04:41:28;;;;;;;7.30;6.70;;;13.50;1.00;;;;;;6279980;28;20730;-55
2022/09/13 04:44:32;;;;;;;6.93;6.63;;;13.60;1.00;;;;;;6281878;28;20225;-54
2022/09/13 04:47:35;;;;;;;7.37;6.97;;;13.60;1.00;;;;;;6289231;28;20271;-55
2022/09/13 04:50:38;;;;;;;7.10;6.80;;;13.70;1.00;;;;;;6289260;28;20733;-54
2022/09/13 04:53:40;;;;;;;7.67;7.27;;;13.60;1.00;;;;;;6284554;28;20391;-55
2022/09/13 04:56:45;;;;;;;6.63;6.33;;;13.70;1.00;;;;;;6277426;28;20512;-54
2022/09/13 04:59:48;;;;;;;7.87;7.33;;;13.70;1.00;;;;;;6282770;28;20240;-54
2022/09/13 05:02:55;;;;;;;7.73;7.13;;;13.80;1.00;;;;;;6286548;28;20725;-55
2022/09/13 05:06:02;;;;;;;7.90;7.50;;;13.80;1.00;;;;;;6277159;28;20236;-55
2022/09/13 05:09:05;;;;;;;7.10;6.70;;;13.90;1.00;;;;;;6281669;28;20237;-55
2022/09/13 05:12:10;;;;;;;8.07;7.57;;;13.90;1.00;;;;;;6285561;28;20229;-55
2022/09/13 05:15:13;;;;;;;7.20;6.80;;;14.00;1.00;;;;;;6279680;28;22613;-54
2022/09/13 05:18:16;;;;;;;8.00;7.53;;;14.00;1.00;;;;;;6286188;28;20510;-55
2022/09/13 05:21:20;;;;;;;7.70;7.20;;;14.10;1.00;;;;;;6273409;28;20233;-56
2022/09/13 05:24:22;;;;;;;8.43;8.00;;;14.10;1.00;;;;;;6274788;28;20233;-56
2022/09/13 05:27:27;;;;;;;8.10;7.53;;;14.20;1.00;;;;;;6284945;28;20238;-54
2022/09/13 05:30:30;;;;;;;8.73;8.13;;;14.20;1.00;;;;;;6285654;28;20257;-55
2022/09/13 05:33:34;;;;;;;8.33;7.87;;;14.30;1.00;;;;;;6288415;28;20416;-61
2022/09/13 05:36:37;;;;;;;8.53;7.70;;;14.30;1.00;;;;;;6286767;28;20225;-56
2022/09/13 05:39:40;;;;;;;8.20;7.80;;;14.30;1.00;;;;;;6262513;28;20237;-55
2022/09/13 05:43:04;;;;;;;8.50;8.00;;;14.30;1.00;;;;;;6281958;28;20241;-55
2022/09/13 05:46:11;;;;;;;9.13;8.43;;;14.30;1.00;;;;;;6294288;28;20761;-54
2022/09/13 05:49:14;;;;;;;8.67;8.17;;;14.30;1.00;;;;;;6282194;28;20241;-54
2022/09/13 05:52:17;;;;;;;9.67;8.73;;;14.20;1.00;;;;;;6284300;28;20237;-56
2022/09/13 05:55:20;;;;;;;9.50;8.73;;;14.20;1.00;;;;;;6287122;28;20783;-56
2022/09/13 05:58:25;;;;;;;9.93;9.07;;;14.20;1.00;;;;;;6291501;28;20225;-55
2022/09/13 06:01:29;;;;;;;8.93;8.33;;;14.20;1.00;;;;;;6284556;28;20237;-55
2022/09/13 06:04:31;;;;;;;8.73;8.03;;;14.10;1.00;;;;;;6286249;28;20240;-55
2022/09/13 06:07:34;;;;;;;9.67;9.00;;;14.10;1.00;;;;;;6284246;28;20251;-55
2022/09/13 06:10:37;;;;;;;10.17;9.30;;;14.10;1.00;;;;;;6291792;28;20237;-55
2022/09/13 06:13:42;;;;;;;9.73;8.73;;;14.10;1.00;;;;;;6287048;28;20264;-54
2022/09/13 06:16:45;;;;;;;9.23;8.63;;;14.10;1.00;;;;;;6283456;28;20237;-56
2022/09/13 06:19:48;;;;;;;9.40;8.80;;;14.10;1.00;;;;;;6281716;28;20233;-56
2022/09/13 06:22:50;;;;;;;8.60;8.10;;;14.10;1.00;;;;;;6283958;28;20252;-56
2022/09/13 06:26:00;;;;;;;10.13;9.40;;;14.10;1.00;;;;;;6287735;28;20232;-56
2022/09/13 06:29:04;;;;;;;10.53;9.33;;;14.10;1.00;;;;;;6286177;28;20245;-56
2022/09/13 06:32:07;;;;;;;11.57;10.57;;;14.10;1.00;;;;;;6290774;28;20401;-56
2022/09/13 06:35:10;;;;;;;11.27;10.27;;;14.10;1.00;;;;;;6283669;28;20248;-55
2022/09/13 06:38:13;;;;;;;11.03;10.23;;;14.10;1.00;;;;;;6275380;28;20242;-56
2022/09/13 06:41:18;;;;;;;9.97;9.27;;;14.10;1.00;;;;;;6279920;28;20245;-55
2022/09/13 06:44:22;;;;;;;11.00;10.10;;;14.10;1.00;;;;;;6288383;28;20256;-56
2022/09/13 06:47:25;;;;;;;12.47;11.40;;;14.10;1.00;;;;;;6291483;28;20229;-56
2022/09/13 06:50:28;;;;;;;12.07;10.80;;;14.20;1.00;;;;;;6289573;28;20241;-56
2022/09/13 06:53:33;;;;;;;12.30;11.30;;;14.20;1.00;;;;;;6296854;28;20228;-56
2022/09/13 06:56:38;;;;;;;12.23;11.20;;;14.40;1.00;;;;;;6291380;28;20243;-56
2022/09/13 06:59:42;;;;;;;10.90;10.20;;;14.50;1.00;;;;;;6290720;28;20324;-56
2022/09/13 07:02:50;;;;;;;11.70;10.83;;;14.70;1.00;;;;;;6287715;28;20240;-55
2022/09/13 07:05:54;;;;;;;12.33;11.20;;;14.80;1.00;;;;;;6291534;28;20229;-56
2022/09/13 07:08:58;;;;;;;16.00;11.70;;;14.80;1.00;;;;;;6286444;28;20412;-55
2022/09/13 07:12:02;;;;;;;12.07;11.10;;;14.90;1.00;;;;;;6290444;28;20491;-55
2022/09/13 07:15:07;;;;;;;11.90;11.00;;;15.00;1.00;;;;;;6292075;28;20229;-56
2022/09/13 07:18:10;;;;;;;10.60;9.77;;;15.10;1.00;;;;;;6289844;28;20241;-56
2022/09/13 07:21:13;;;;;;;12.07;11.17;;;15.10;1.00;;;;;;6300751;28;20380;-55
2022/09/13 07:24:16;;;;;;;12.00;11.07;;;15.10;1.00;;;;;;6289656;28;20237;-55
2022/09/13 07:27:19;;;;;;;12.13;11.33;;;15.10;1.00;;;;;;6287711;28;20594;-55
2022/09/13 07:30:25;;;;;;;12.23;11.13;;;15.10;1.00;;;;;;6287693;28;20237;-55
2022/09/13 07:33:28;;;;;;;12.60;11.50;;;15.20;1.00;;;;;;6285894;28;20229;-55
2022/09/13 07:36:33;;;;;;;11.20;10.40;;;15.30;1.00;;;;;;6297496;28;20236;-56
2022/09/13 07:39:36;;;;;;;12.73;11.60;;;15.40;1.00;;;;;;6286961;28;20229;-55
2022/09/13 07:42:39;;;;;;;11.50;10.70;;;15.50;1.00;;;;;;6286387;28;20642;-56
2022/09/13 07:45:43;;;;;;;11.57;10.70;;;15.60;1.00;;;;;;6290588;28;20725;-55
2022/09/13 07:48:47;;;;;;;12.53;11.23;;;15.70;1.00;;;;;;6293629;28;20241;-56
2022/09/13 07:51:51;;;;;;;13.10;12.07;;;15.60;1.00;;;;;;6292732;28;20264;-56
2022/09/13 07:54:55;;;;;;;12.57;11.57;;;15.60;1.00;;;;;;6297023;28;20245;-56
2022/09/13 07:57:58;;;;;;;12.03;11.07;;;15.60;1.00;;;;;;6287257;28;20236;-56
2022/09/13 08:01:06;;;;;;;11.70;10.90;;;15.60;1.00;;;;;;6291667;28;20240;-56
2022/09/13 08:04:11;;;;;;;12.27;11.17;;;15.70;1.00;;;;;;6288395;28;20713;-55
2022/09/13 08:07:14;;;;;;;10.53;9.83;;;15.80;1.00;;;;;;6285575;28;20233;-56
2022/09/13 08:10:17;;;;;;;11.53;10.53;;;16.00;1.00;;;;;;6288161;28;20241;-55
2022/09/13 08:13:20;;;;;;;9.57;8.97;;;16.20;1.00;;;;;;6290277;28;20237;-56
2022/09/13 08:16:25;;;;;;;11.57;10.50;;;16.40;1.00;;;;;;6287585;28;20853;-60
2022/09/13 08:19:28;;;;;;;11.00;10.30;;;16.50;1.00;;;;;;6289188;28;20241;-55
2022/09/13 08:22:31;;;;;;;12.33;11.33;;;16.60;1.00;;;;;;6292031;28;20294;-56
2022/09/13 08:25:34;;;;;;;11.30;10.23;;;16.70;1.00;;;;;;6289618;28;20236;-57
2022/09/13 08:28:39;;;;;;;10.77;10.03;;;16.70;1.00;;;;;;6292996;28;20236;-55
2022/09/13 08:31:44;;;;;;;10.73;10.00;;;16.80;1.00;;;;;;6281228;28;20702;-55
2022/09/13 08:34:46;;;;;;;11.03;10.23;;;16.80;1.00;;;;;;6297295;28;20243;-56
2022/09/13 08:37:49;;;;;;;10.63;9.73;;;16.90;1.00;;;;;;6284351;28;20244;-56
2022/09/13 08:40:56;;;;;;;11.20;10.30;;;16.90;1.00;;;;;;6283428;28;20248;-56
2022/09/13 08:44:08;;;;;;;11.63;10.73;;;17.10;1.00;;;;;;6289128;28;20484;-56
2022/09/13 08:47:35;;;;;;;11.30;10.30;;;17.20;1.00;;;;;;6289137;28;20257;-56
2022/09/13 08:50:39;;;;;;;14.47;10.13;;;17.40;1.00;;;;;;6284278;28;20242;-55
2022/09/13 08:53:47;;;;;;;11.13;10.23;;;17.50;1.00;;;;;;6281786;28;20248;-57
2022/09/13 08:56:58;;;;;;;11.47;10.57;;;17.50;1.00;;;;;;6286268;28;20240;-56
2022/09/13 09:00:11;;;;;;;10.07;9.27;;;17.40;1.00;;;;;;6285512;28;20241;-57
2022/09/13 09:03:29;;;;;;;10.97;10.13;;;17.50;1.00;;;;;;6281816;28;20253;-57
2022/09/13 09:06:34;;;;;;;11.30;10.37;;;17.50;1.00;;;;;;6288377;28;20496;-56
2022/09/13 09:09:42;;;;;;;11.47;10.50;;;17.60;1.00;;;;;;6292667;28;20312;-56
2022/09/13 09:12:49;;;;;;;10.67;9.77;;;17.80;1.00;;;;;;6289280;28;20740;-58
2022/09/13 09:15:55;;;;;;;10.60;9.70;;;17.90;1.00;;;;;;6284291;28;20582;-56
2022/09/13 09:19:05;;;;;;;9.90;9.30;;;18.00;1.00;;;;;;6285487;28;20248;-57
2022/09/13 09:22:16;;;;;;;10.47;9.70;;;17.90;1.00;;;;;;6289793;28;20240;-56
2022/09/13 09:25:21;;;;;;;11.73;10.77;;;17.80;1.00;;;;;;6273018;28;20221;-56
2022/09/13 09:28:25;;;;;;;10.67;9.87;;;17.90;1.00;;;;;;6278153;28;20621;-57
2022/09/13 09:31:39;;;;;;;10.97;10.07;;;18.20;1.00;;;;;;6290032;28;20258;-58
2022/09/13 09:34:53;;;;;;;10.93;9.87;;;18.40;1.00;;;;;;6291212;28;20309;-56
2022/09/13 09:38:16;;;;;;;9.17;8.50;;;18.60;1.00;;;;;;6272462;28;20241;-57
2022/09/13 09:41:26;;;;;;;9.80;9.10;;;18.80;1.00;;;;;;6277737;28;20706;-57
2022/09/13 09:44:32;;;;;;;10.63;9.83;;;18.80;1.00;;;;;;6293044;28;20741;-57
2022/09/13 09:47:44;;;;;;;10.40;9.60;;;18.70;1.00;;;;;;6286028;28;20233;-57
2022/09/13 09:50:51;;;;;;;11.33;9.73;;;18.90;1.00;;;;;;6280810;28;20264;-58
2022/09/13 09:54:00;;;;;;;9.63;9.00;;;19.10;1.00;;;;;;6286150;28;20509;-57
2022/09/13 09:57:05;;;;;;;9.07;8.50;;;19.40;1.00;;;;;;6288221;28;20789;-58
2022/09/13 10:00:12;;;;;;;9.17;8.57;;;19.60;1.00;;;;;;6282882;28;20241;-58
2022/09/13 10:03:19;;;;;;;8.53;7.93;;;19.90;1.00;;;;;;6282813;28;20229;-58
2022/09/13 10:06:27;;;;;;;9.27;8.50;;;20.10;1.00;;;;;;6283196;28;20252;-58
2022/09/13 10:09:30;;;;;;;8.77;8.10;;;20.10;1.00;;;;;;6292311;28;20721;-58
2022/09/13 10:12:36;;;;;;;9.23;7.93;;;20.30;1.00;;;;;;6291850;28;20247;-56
2022/09/13 10:15:54;;;;;;;9.00;7.77;;;20.50;1.00;;;;;;6287043;28;20851;-57
2022/09/13 10:19:22;;;;;;;8.07;7.47;;;20.60;1.00;;;;;;6297550;28;20233;-57
2022/09/13 10:22:28;;;;;;;9.20;8.20;;;20.50;1.00;;;;;;6295073;28;20237;-60
2022/09/13 10:25:31;;;;;;;8.63;7.97;;;20.50;1.00;;;;;;6288596;28;20245;-60
2022/09/13 10:28:41;;;;;;;7.93;7.40;;;20.40;1.00;;;;;;6301340;28;20228;-57
2022/09/13 10:31:48;;;;;;;8.93;8.27;;;20.50;1.00;;;;;;6291439;28;20436;-58
2022/09/13 10:34:52;;;;;;;8.40;7.73;;;20.50;1.00;;;;;;6295784;28;20386;-56
2022/09/13 10:37:56;;;;;;;9.07;8.40;;;20.60;1.00;;;;;;6285418;28;20229;-62
2022/09/13 10:41:02;;;;;;;9.63;8.80;;;20.80;1.00;;;;;;6297127;28;20241;-57
2022/09/13 10:44:21;;;;;;;8.80;8.10;;;20.70;1.00;;;;;;6301352;28;20248;-63
2022/09/13 10:47:33;;;;;;;9.07;8.47;;;20.70;1.00;;;;;;6293547;28;20237;-58
2022/09/13 10:50:36;;;;;;;9.03;8.40;;;20.60;1.00;;;;;;6301802;28;20244;-58
2022/09/13 10:53:42;;;;;;;10.33;9.37;;;20.60;1.00;;;;;;6291485;28;20291;-57
2022/09/13 10:56:45;;;;;;;9.90;9.13;;;20.60;1.00;;;;;;6301857;28;20257;-58
2022/09/13 10:59:53;;;;;;;9.90;9.30;;;20.60;1.00;;;;;;6296321;28;20237;-57
2022/09/13 11:03:13;;;;;;;10.27;9.47;;;20.60;1.00;;;;;;6286729;28;20237;-61
2022/09/13 11:06:25;;;;;;;9.50;8.80;;;20.40;1.00;;;;;;6297196;28;20221;-58
2022/09/13 11:09:35;;;;;;;11.37;10.23;;;20.50;1.00;;;;;;6279807;28;20229;-58
2022/09/13 11:12:43;;;;;;;9.87;9.07;;;20.30;1.00;;;;;;6293173;28;20642;-58
2022/09/13 11:15:56;;;;;;;11.67;10.60;;;20.10;1.00;;;;;;6288391;28;20233;-58
2022/09/13 11:19:24;;;;;;;11.67;10.00;;;20.00;1.00;;;;;;6278109;28;20244;-58
2022/09/13 11:22:50;;;;;;;11.57;10.57;;;20.00;1.00;;;;;;6288629;28;20236;-57
2022/09/13 11:26:08;;;;;;;11.80;10.80;;;19.90;1.00;;;;;;6292200;28;20244;-57
2022/09/13 11:29:27;;;;;;;11.70;10.80;;;19.80;1.00;;;;;;6291141;28;21624;-57
2022/09/13 11:32:49;;;;;;;12.50;11.50;;;19.70;1.00;;;;;;6287865;28;20229;-58
2022/09/13 11:36:15;;;;;;;11.50;10.53;;;19.60;1.00;;;;;;6283392;28;20245;-58
2022/09/13 11:39:30;;;;;;;11.03;10.13;;;19.60;1.00;;;;;;6282063;28;20230;-55
2022/09/13 11:42:46;;;;;;;11.23;10.37;;;19.60;1.00;;;;;;6278731;28;20237;-56
2022/09/13 11:45:57;;;;;;;11.83;10.70;;;19.50;1.00;;;;;;6281601;28;20737;-61
2022/09/13 11:49:25;;;;;;;12.73;11.53;;;19.40;1.00;;;;;;6266943;28;20320;-57
2022/09/13 11:52:40;;;;;;;12.17;11.20;;;19.30;1.00;;;;;;6284408;28;20238;-57
2022/09/13 11:55:48;;;;;;;11.63;10.70;;;19.40;1.00;;;;;;6290241;28;20229;-57
2022/09/13 11:58:56;;;;;;;10.17;9.37;;;19.30;1.00;;;;;;6289175;28;20233;-58
2022/09/13 12:02:04;;;;;;;10.50;9.60;;;19.30;1.00;;;;;;6284533;28;20476;-57
2022/09/13 12:05:15;;;;;;;11.60;9.83;;;19.20;1.00;;;;;;6260743;28;20245;-57
2022/09/13 12:08:28;;;;;;;11.10;9.87;;;19.30;1.00;;;;;;6290752;28;20308;-56
2022/09/13 12:11:35;;;;;;;11.20;10.17;;;19.30;1.00;;;;;;6288586;28;20293;-58
2022/09/13 12:14:47;;;;;;;11.27;10.33;;;19.20;1.00;;;;;;6286978;28;20557;-57
2022/09/13 12:17:58;;;;;;;11.90;10.93;;;19.20;1.00;;;;;;6283660;28;20230;-57
2022/09/13 12:21:07;;;;;;;11.90;10.90;;;19.10;1.00;;;;;;6283011;28;20240;-58
2022/09/13 12:24:16;;;;;;;11.40;10.40;;;19.20;1.00;;;;;;6282289;28;20425;-57
2022/09/13 12:27:26;;;;;;;11.10;10.20;;;19.20;1.00;;;;;;6288217;28;20630;-57
2022/09/13 12:30:42;;;;;;;11.33;10.53;;;19.20;1.00;;;;;;6288226;28;20243;-57
2022/09/13 12:33:46;;;;;;;12.87;11.43;;;19.20;1.00;;;;;;6286760;28;20236;-58
2022/09/13 12:37:10;;;;;;;12.80;11.20;;;19.10;1.00;;;;;;6287580;28;20245;-58
2022/09/13 12:40:35;;;;;;;12.10;11.30;;;19.10;1.00;;;;;;6279817;28;20480;-57
2022/09/13 12:44:10;;;;;;;12.87;11.67;;;19.10;1.00;;;;;;6284296;28;20248;-57
2022/09/13 12:47:47;;;;;;;10.90;10.03;;;19.10;1.00;;;;;;6278886;28;20301;-56
2022/09/13 12:51:03;;;;;;;14.57;13.23;;;19.10;1.00;;;;;;6286413;28;20237;-58
2022/09/13 12:54:38;;;;;;;14.30;13.03;;;19.10;1.00;;;;;;6288293;28;20240;-57
2022/09/13 12:57:50;;;;;;;15.30;13.80;;;19.10;1.00;;;;;;6286657;28;20242;-57
2022/09/13 13:01:08;;;;;;;13.50;12.20;;;19.10;1.00;;;;;;6281641;28;20238;-60
2022/09/13 13:04:16;;;;;;;13.93;12.63;;;19.20;1.00;;;;;;6282491;28;20229;-57
2022/09/13 13:07:21;;;;;;;14.10;12.50;;;19.30;1.00;;;;;;6286202;28;20225;-57
2022/09/13 13:10:29;;;;;;;18.57;13.30;;;19.30;1.00;;;;;;6283366;28;20228;-57
2022/09/13 13:13:36;;;;;;;12.97;11.73;;;19.40;1.00;;;;;;6288286;28;20237;-59
2022/09/13 13:16:40;;;;;;;14.13;12.73;;;19.50;1.00;;;;;;6287369;28;20271;-59
2022/09/13 13:19:44;;;;;;;11.50;10.63;;;19.60;1.00;;;;;;6290835;28;20241;-56
2022/09/13 13:22:51;;;;;;;13.83;12.63;;;19.60;1.00;;;;;;6294356;28;20259;-57
2022/09/13 13:26:01;;;;;;;13.40;12.30;;;19.60;1.00;;;;;;6293214;28;20625;-57
2022/09/13 13:29:17;;;;;;;13.50;12.33;;;19.50;1.00;;;;;;6295060;28;20624;-57
2022/09/13 13:32:21;;;;;;;16.93;13.07;;;19.50;1.00;;;;;;6283987;28;20786;-57
2022/09/13 13:35:31;;;;;;;10.97;10.17;;;19.50;1.00;;;;;;6294387;28;20765;-58
2022/09/13 13:38:41;;;;;;;10.17;9.50;;;19.50;1.00;;;;;;6288378;28;20707;-56
2022/09/13 13:41:51;;;;;;;11.90;10.90;;;19.60;1.00;;;;;;6287983;28;20265;-58
2022/09/13 13:45:13;;;;;;;10.57;9.67;;;19.50;1.00;;;;;;6280134;28;20308;-57
2022/09/13 13:48:35;;;;;;;10.73;9.90;;;19.60;1.00;;;;;;6284032;28;20256;-57
2022/09/13 13:51:39;;;;;;;10.80;9.90;;;19.60;1.00;;;;;;6287905;28;20622;-57
2022/09/13 13:54:58;;;;;;;10.80;10.00;;;19.60;1.00;;;;;;6285290;28;20492;-56
2022/09/13 13:58:04;;;;;;;9.70;9.00;;;19.80;1.00;;;;;;6287470;28;20233;-57
2022/09/13 14:01:16;;;;;;;9.80;9.07;;;19.90;1.00;;;;;;6272015;28;20276;-58
2022/09/13 14:05:05;;;;;;;9.23;8.53;;;19.90;1.00;;;;;;6281607;28;20230;-56
2022/09/13 14:08:29;;;;;;;10.30;9.53;;;20.10;1.00;;;;;;6186716;28;20713;-57
2022/09/13 14:11:48;;;;;;;10.20;9.00;;;20.20;1.00;;;;;;6283599;28;20264;-58
2022/09/13 14:15:04;;;;;;;13.63;9.00;;;20.20;1.00;;;;;;6284081;28;20584;-57
2022/09/13 14:18:34;;;;;;;8.90;8.30;;;20.30;1.00;;;;;;6283378;28;20233;-57
2022/09/13 14:21:37;;;;;;;8.30;7.77;;;20.50;1.00;;;;;;6280926;28;20229;-57
2022/09/13 14:24:45;;;;;;;9.67;6.93;;;20.70;1.00;;;;;;6292773;28;20243;-56
2022/09/13 14:27:48;;;;;;;7.37;6.87;;;20.80;1.00;;;;;;6286283;28;20375;-56
2022/09/13 14:30:57;;;;;;;6.60;6.30;;;20.90;1.00;;;;;;6278290;28;20233;-57
2022/09/13 14:34:00;;;;;;;6.70;6.40;;;21.00;1.00;;;;;;6285475;28;20281;-56
2022/09/13 14:37:05;;;;;;;6.93;6.43;;;21.10;1.00;;;;;;6288315;28;20597;-57
2022/09/13 14:40:18;;;;;;;6.40;6.00;;;21.00;1.00;;;;;;6289574;28;20237;-57
2022/09/13 14:43:24;;;;;;;7.30;6.70;;;21.00;1.00;;;;;;6279710;28;20230;-57
2022/09/13 14:46:32;;;;;;;6.03;5.83;;;21.00;1.00;;;;;;6281375;28;20604;-57
2022/09/13 14:49:39;;;;;;;6.97;6.47;;;21.00;1.00;;;;;;6291085;28;20285;-57
2022/09/13 14:52:48;;;;;;;6.53;6.03;;;20.80;1.00;;;;;;6290489;28;20236;-56
2022/09/13 14:55:56;;;;;;;6.27;5.87;;;20.70;1.00;;;;;;6280310;28;20229;-56
2022/09/13 14:59:03;;;;;;;6.33;5.73;;;20.60;1.00;;;;;;6281628;28;20654;-57
2022/09/13 15:02:07;;;;;;;6.23;5.93;;;20.60;1.00;;;;;;6281738;28;20677;-57
2022/09/13 15:05:14;;;;;;;9.23;7.37;;;20.60;1.00;;;;;;6284737;28;20606;-57
2022/09/13 15:08:26;;;;;;;7.70;7.20;;;20.60;1.00;;;;;;6275510;28;20603;-56
2022/09/13 15:11:34;;;;;;;7.50;7.10;;;20.60;1.00;;;;;;6276959;28;20241;-56
2022/09/13 15:14:37;;;;;;;7.00;6.70;;;20.80;1.00;;;;;;6277027;28;20238;-58
2022/09/13 15:17:54;;;;;;;7.10;6.70;;;20.80;1.00;;;;;;6289624;28;20308;-57
2022/09/13 15:21:00;;;;;;;7.67;7.10;;;21.00;1.00;;;;;;6283481;28;20234;-56
2022/09/13 15:24:03;;;;;;;8.17;7.37;;;21.30;1.00;;;;;;6284187;28;20225;-57
2022/09/13 15:27:18;;;;;;;8.40;7.87;;;21.50;1.00;;;;;;6289952;28;20228;-56
2022/09/13 15:30:24;;;;;;;8.17;7.47;;;21.40;1.00;;;;;;6298718;28;20741;-58
2022/09/13 15:33:29;;;;;;;7.50;7.00;;;21.30;1.00;;;;;;6293699;28;20248;-56
2022/09/13 15:36:34;;;;;;;7.53;7.13;;;21.10;1.00;;;;;;6294087;28;20724;-56
2022/09/13 15:39:45;;;;;;;6.97;6.47;;;21.00;1.00;;;;;;6295415;28;20240;-56
2022/09/13 15:42:53;;;;;;;8.40;7.70;;;20.90;1.00;;;;;;6285249;28;20233;-57
2022/09/13 15:45:57;;;;;;;9.47;8.70;;;20.80;1.00;;;;;;6290639;28;20268;-58
2022/09/13 15:49:04;;;;;;;9.23;8.53;;;20.70;1.00;;;;;;6300466;28;20224;-57
2022/09/13 15:52:08;;;;;;;9.07;8.27;;;20.60;1.00;;;;;;6286376;28;20241;-57
2022/09/13 15:55:11;;;;;;;9.40;8.20;;;20.40;1.00;;;;;;6286554;28;20327;-58
2022/09/13 15:58:16;;;;;;;8.70;8.17;;;20.30;1.00;;;;;;6291375;28;20238;-58
2022/09/13 16:01:19;;;;;;;8.07;7.50;;;20.30;1.00;;;;;;6286870;28;20275;-56
2022/09/13 16:04:22;;;;;;;7.77;7.37;;;20.20;1.00;;;;;;6295440;28;20837;-57
2022/09/13 16:07:26;;;;;;;7.50;6.90;;;20.10;1.00;;;;;;6295143;28;20237;-57
2022/09/13 16:10:29;;;;;;;8.13;7.37;;;20.00;1.00;;;;;;6287462;28;20716;-56
2022/09/13 16:13:33;;;;;;;7.57;7.07;;;19.90;1.00;;;;;;6289724;28;20254;-58
2022/09/13 16:16:36;;;;;;;7.90;7.30;;;19.80;1.00;;;;;;6288110;28;20229;-57
2022/09/13 16:19:40;;;;;;;7.43;7.03;;;19.70;1.00;;;;;;6264200;28;20229;-57
2022/09/13 16:22:43;;;;;;;6.83;6.43;;;19.60;1.00;;;;;;6285496;28;20722;-58
2022/09/13 16:25:46;;;;;;;7.03;6.50;;;19.60;1.00;;;;;;6297319;28;20566;-57